createdAt,value
2019-05-16T00:02:08.251Z,3.70
2019-05-16T00:04:37.778Z,3.83
2019-05-16T00:07:04.995Z,2.73
2019-05-16T00:09:32.239Z,2.67
2019-05-16T00:11:59.467Z,1.30
2019-05-16T00:14:28.153Z,0.70
2019-05-16T00:16:55.603Z,0.90
2019-05-16T00:19:22.833Z,1.03
2019-05-16T00:21:50.128Z,0.93
2019-05-16T00:24:18.671Z,0.83
2019-05-16T00:26:47.966Z,0.80
2019-05-16T00:29:15.236Z,0.70
2019-05-16T00:31:42.567Z,1.60
2019-05-16T00:34:09.839Z,2.37
2019-05-16T00:36:38.258Z,1.60
2019-05-16T00:39:08.212Z,1.07
2019-05-16T00:41:35.498Z,0.77
2019-05-16T00:44:02.745Z,1.43
2019-05-16T00:46:30.401Z,0.80
2019-05-16T00:48:58.902Z,1.00
2019-05-16T00:51:30.600Z,0.90
2019-05-16T00:53:58.823Z,0.93
2019-05-16T00:56:29.061Z,0.87
2019-05-16T00:58:58.777Z,0.90
2019-05-16T01:01:29.197Z,0.90
2019-05-16T01:03:58.614Z,1.27
2019-05-16T01:06:28.594Z,0.83
2019-05-16T01:08:57.849Z,0.80
2019-05-16T01:11:24.591Z,0.60
2019-05-16T01:13:51.864Z,1.57
2019-05-16T01:16:19.075Z,2.33
2019-05-16T01:18:48.391Z,2.13
2019-05-16T01:21:15.460Z,1.40
2019-05-16T01:23:42.719Z,1.60
2019-05-16T01:26:09.967Z,1.10
2019-05-16T01:28:37.795Z,1.43
2019-05-16T01:31:05.293Z,1.53
2019-05-16T01:33:32.508Z,1.30
2019-05-16T01:35:59.759Z,1.07
2019-05-16T01:38:28.498Z,0.77
2019-05-16T01:40:58.128Z,0.93
2019-05-16T01:43:25.229Z,1.10
2019-05-16T01:45:52.464Z,1.53
2019-05-16T01:48:19.688Z,1.03
2019-05-16T01:50:48.076Z,1.20
2019-05-16T01:53:17.661Z,0.90
2019-05-16T01:55:44.729Z,0.90
2019-05-16T01:58:11.968Z,1.23
2019-05-16T02:00:49.135Z,1.23
2019-05-16T02:03:08.883Z,0.80
2019-05-16T02:05:36.115Z,0.93
2019-05-16T02:08:03.342Z,0.63
2019-05-16T02:10:30.599Z,0.63
2019-05-16T02:12:58.196Z,0.93
2019-05-16T02:15:25.564Z,1.33
2019-05-16T02:17:52.787Z,0.97
2019-05-16T02:20:20.034Z,0.80
2019-05-16T02:22:48.244Z,0.90
2019-05-16T02:25:15.771Z,0.67
2019-05-16T02:27:42.999Z,0.73
2019-05-16T02:30:12.489Z,1.20
2019-05-16T02:32:41.629Z,1.10
2019-05-16T02:35:11.814Z,0.93
2019-05-16T02:37:41.749Z,0.93
2019-05-16T02:40:12.119Z,0.60
2019-05-16T02:42:41.534Z,1.20
2019-05-16T02:45:10.974Z,0.87
2019-05-16T02:47:37.110Z,0.80
2019-05-16T02:50:04.493Z,1.03
2019-05-16T02:52:31.903Z,2.33
2019-05-16T02:55:00.951Z,2.23
2019-05-16T02:57:31.337Z,3.30
2019-05-16T02:59:57.578Z,4.07
2019-05-16T03:02:24.815Z,4.30
2019-05-16T03:04:52.137Z,3.33
2019-05-16T03:07:36.425Z,3.63
2019-05-16T03:09:51.368Z,3.37
2019-05-16T03:12:21.299Z,4.70
2019-05-16T03:14:54.101Z,3.53
2019-05-16T03:17:22.254Z,2.60
2019-05-16T03:19:51.088Z,1.33
2019-05-16T03:22:22.011Z,1.40
2019-05-16T03:24:51.505Z,2.30
2019-05-16T03:27:21.383Z,3.53
2019-05-16T03:29:50.481Z,3.70
2019-05-16T03:32:16.958Z,2.20
2019-05-16T03:34:44.659Z,1.80
2019-05-16T03:37:14.121Z,1.10
2019-05-16T03:39:41.235Z,0.90
2019-05-16T03:42:08.534Z,1.20
2019-05-16T03:44:35.768Z,1.40
2019-05-16T03:47:03.080Z,1.00
2019-05-16T03:49:31.219Z,0.70
2019-05-16T03:52:01.456Z,1.37
2019-05-16T03:54:31.157Z,1.60
2019-05-16T03:56:57.132Z,1.13
2019-05-16T03:59:24.372Z,1.33
2019-05-16T04:01:51.738Z,0.90
2019-05-16T04:04:20.834Z,1.17
2019-05-16T04:06:50.676Z,1.10
2019-05-16T04:09:17.342Z,1.40
2019-05-16T04:11:44.703Z,2.47
2019-05-16T04:14:11.978Z,2.53
2019-05-16T04:16:41.439Z,3.53
2019-05-16T04:19:11.217Z,5.60
2019-05-16T04:21:37.544Z,4.40
2019-05-16T04:24:04.852Z,4.47
2019-05-16T04:26:35.748Z,4.73
2019-05-16T04:29:01.356Z,3.57
2019-05-16T04:31:30.818Z,3.40
2019-05-16T04:34:00.852Z,3.10
2019-05-16T04:36:26.849Z,4.00
2019-05-16T04:38:54.204Z,2.93
2019-05-16T04:41:21.700Z,2.27
2019-05-16T04:43:50.573Z,2.63
2019-05-16T04:46:21.361Z,2.93
2019-05-16T04:48:50.495Z,2.23
2019-05-16T04:51:16.791Z,1.77
2019-05-16T04:53:44.139Z,1.70
2019-05-16T04:56:11.396Z,1.70
2019-05-16T04:58:40.885Z,2.03
2019-05-16T05:01:10.867Z,1.80
2019-05-16T05:03:40.658Z,1.73
2019-05-16T05:06:06.269Z,1.90
2019-05-16T05:08:49.286Z,1.73
2019-05-16T05:11:02.732Z,1.80
2019-05-16T05:13:30.656Z,1.43
2019-05-16T05:16:01.063Z,1.50
2019-05-16T05:18:30.070Z,1.30
2019-05-16T05:20:56.523Z,1.27
2019-05-16T05:23:23.801Z,1.37
2019-05-16T05:25:51.716Z,0.77
2019-05-16T05:28:20.953Z,1.50
2019-05-16T05:30:50.308Z,1.20
2019-05-16T05:33:17.581Z,1.87
2019-05-16T05:35:44.823Z,1.40
2019-05-16T05:38:12.226Z,1.43
2019-05-16T05:40:40.466Z,1.57
2019-05-16T05:43:10.448Z,1.60
2019-05-16T05:45:37.044Z,1.13
2019-05-16T05:48:04.275Z,0.73
2019-05-16T05:50:31.624Z,1.00
2019-05-16T05:53:01.427Z,0.90
2019-05-16T05:55:31.134Z,0.83
2019-05-16T05:57:57.278Z,1.43
2019-05-16T06:00:24.693Z,0.60
2019-05-16T06:02:51.936Z,0.70
2019-05-16T06:05:20.244Z,1.70
2019-05-16T06:07:47.842Z,1.77
2019-05-16T06:10:15.072Z,0.90
2019-05-16T06:12:42.864Z,0.63
2019-05-16T06:15:12.791Z,0.70
2019-05-16T06:17:40.237Z,0.77
2019-05-16T06:20:14.079Z,0.50
2019-05-16T06:22:36.960Z,0.87
2019-05-16T06:25:04.660Z,0.70
2019-05-16T06:27:31.871Z,0.73
2019-05-16T06:30:00.509Z,0.70
2019-05-16T06:32:30.234Z,0.83
2019-05-16T06:34:57.175Z,1.10
2019-05-16T06:37:24.420Z,1.20
2019-05-16T06:39:51.665Z,1.27
2019-05-16T06:42:20.589Z,0.80
2019-05-16T06:44:50.230Z,1.10
2019-05-16T06:47:22.264Z,0.63
2019-05-16T06:49:46.387Z,0.70
2019-05-16T06:52:13.737Z,0.63
2019-05-16T06:54:40.963Z,0.60
2019-05-16T06:57:10.420Z,0.50
2019-05-16T06:59:37.438Z,0.63
2019-05-16T07:02:04.692Z,0.50
2019-05-16T07:04:32.016Z,0.43
2019-05-16T07:07:02.751Z,0.90
2019-05-16T07:09:30.169Z,0.57
2019-05-16T07:11:59.762Z,0.50
2019-05-16T07:14:28.267Z,0.30
2019-05-16T07:16:55.799Z,0.30
2019-05-16T07:19:23.055Z,0.63
2019-05-16T07:21:50.827Z,0.30
2019-05-16T07:24:19.864Z,0.40
2019-05-16T07:26:49.860Z,0.50
2019-05-16T07:29:16.403Z,0.40
2019-05-16T07:31:43.627Z,0.60
2019-05-16T07:34:14.679Z,1.23
2019-05-16T07:36:42.195Z,0.80
2019-05-16T07:39:10.713Z,0.50
2019-05-16T07:41:40.149Z,0.50
2019-05-16T07:44:10.573Z,0.83
2019-05-16T07:46:36.772Z,0.60
2019-05-16T07:49:03.991Z,0.50
2019-05-16T07:51:31.261Z,0.80
2019-05-16T07:53:59.777Z,1.30
2019-05-16T07:56:27.154Z,0.53
2019-05-16T07:58:54.440Z,0.57
2019-05-16T08:01:21.743Z,0.67
2019-05-16T08:03:51.082Z,0.50
2019-05-16T08:06:20.131Z,0.72
2019-05-16T08:08:47.752Z,0.60
2019-05-16T08:11:15.093Z,0.53
2019-05-16T08:13:42.465Z,0.53
2019-05-16T08:16:10.336Z,0.60
2019-05-16T08:18:37.834Z,0.70
2019-05-16T08:21:05.182Z,0.40
2019-05-16T08:23:32.595Z,0.70
2019-05-16T08:26:01.199Z,0.68
2019-05-16T08:31:00.961Z,0.45
2019-05-16T08:33:27.348Z,0.33
2019-05-16T08:35:54.710Z,0.60
2019-05-16T08:38:22.115Z,0.30
2019-05-16T08:41:06.487Z,0.50
2019-05-16T08:43:21.403Z,0.70
2019-05-16T08:45:47.727Z,0.70
2019-05-16T08:48:14.984Z,0.45
2019-05-16T08:50:50.284Z,0.55
2019-05-16T08:53:13.037Z,0.30
2019-05-16T08:55:43.299Z,0.60
2019-05-16T08:58:13.552Z,0.47
2019-05-16T09:00:42.014Z,0.30
2019-05-16T09:03:12.068Z,0.30
2019-05-16T09:05:37.276Z,0.40
2019-05-16T09:08:04.667Z,0.47
2019-05-16T09:10:26.227Z,0.60
2019-05-16T09:10:49.723Z,0.33
2019-05-16T09:13:01.023Z,0.47
2019-05-16T09:15:29.707Z,0.68
2019-05-16T09:17:58.184Z,0.20
2019-05-16T09:20:28.067Z,0.33
2019-05-16T09:22:57.844Z,0.30
2019-05-16T09:25:30.440Z,0.60
2019-05-16T09:27:57.777Z,0.40
2019-05-16T09:30:27.383Z,0.50
2019-05-16T09:32:54.195Z,0.30
2019-05-16T09:35:21.944Z,0.60
2019-05-16T09:37:49.179Z,0.35
2019-05-16T09:40:17.319Z,0.40
2019-05-16T09:42:47.159Z,0.37
2019-05-16T09:45:17.082Z,0.50
2019-05-16T09:47:44.612Z,0.75
2019-05-16T09:50:12.883Z,0.78
2019-05-16T09:52:40.142Z,0.60
2019-05-16T09:55:08.704Z,0.75
2019-05-16T09:57:37.602Z,0.50
2019-05-16T10:00:08.031Z,0.50
2019-05-16T10:02:40.950Z,0.98
2019-05-16T10:05:13.434Z,1.12
2019-05-16T10:07:38.774Z,1.40
2019-05-16T10:10:07.419Z,0.75
2019-05-16T10:12:36.949Z,0.62
2019-05-16T10:15:04.019Z,1.10
2019-05-16T10:17:31.258Z,1.10
2019-05-16T10:20:00.081Z,1.10
2019-05-16T10:22:27.657Z,0.93
2019-05-16T10:24:57.128Z,1.12
2019-05-16T10:27:26.388Z,1.02
2019-05-16T10:29:53.377Z,1.57
2019-05-16T10:32:20.719Z,0.80
2019-05-16T10:34:47.953Z,0.80
2019-05-16T10:37:17.648Z,0.70
2019-05-16T10:39:46.756Z,0.60
2019-05-16T10:42:24.919Z,1.00
2019-05-16T10:44:42.861Z,0.70
2019-05-16T10:47:10.235Z,0.60
2019-05-16T10:49:41.515Z,0.70
2019-05-16T10:52:07.278Z,0.60
2019-05-16T10:54:36.985Z,0.80
2019-05-16T10:57:04.140Z,1.00
2019-05-16T10:59:58.600Z,0.82
2019-05-16T11:02:00.818Z,1.05
2019-05-16T11:04:37.650Z,1.12
2019-05-16T11:06:57.392Z,0.82
2019-05-16T11:09:24.783Z,0.50
2019-05-16T11:11:53.559Z,0.70
2019-05-16T11:14:20.993Z,0.80
2019-05-16T11:16:48.458Z,0.70
2019-05-16T11:19:21.379Z,0.75
2019-05-16T11:21:46.819Z,0.60
2019-05-16T11:24:14.344Z,1.05
2019-05-16T11:26:41.688Z,0.62
2019-05-16T11:29:08.964Z,0.80
2019-05-16T11:31:37.264Z,0.95
2019-05-16T11:34:04.743Z,0.85
2019-05-16T11:36:32.087Z,0.88
2019-05-16T11:39:01.887Z,0.72
2019-05-16T11:41:28.488Z,0.88
2019-05-16T11:43:56.871Z,1.10
2019-05-16T11:46:24.449Z,1.22
2019-05-16T11:48:51.829Z,1.25
2019-05-16T11:51:19.084Z,1.30
2019-05-16T11:53:47.720Z,1.20
2019-05-16T11:56:15.243Z,0.70
2019-05-16T11:58:49.433Z,1.22
2019-05-16T12:01:17.369Z,1.50
2019-05-16T12:03:48.795Z,0.90
2019-05-16T12:06:17.121Z,1.62
2019-05-16T12:08:46.765Z,1.37
2019-05-16T12:11:13.765Z,1.22
2019-05-16T12:13:41.010Z,1.20
2019-05-16T12:16:08.351Z,1.50
2019-05-16T12:18:37.344Z,1.50
2019-05-16T12:21:07.307Z,1.20
2019-05-16T12:23:37.011Z,2.02
2019-05-16T12:26:03.073Z,1.37
2019-05-16T12:28:30.377Z,1.07
2019-05-16T12:30:57.585Z,1.17
2019-05-16T12:33:27.224Z,1.70
2019-05-16T12:35:54.052Z,1.72
2019-05-16T12:38:21.359Z,1.77
2019-05-16T12:40:48.623Z,1.95
2019-05-16T12:43:18.103Z,2.00
2019-05-16T12:45:47.289Z,2.00
2019-05-16T12:48:17.416Z,1.75
2019-05-16T12:50:43.416Z,1.35
2019-05-16T12:53:10.745Z,1.77
2019-05-16T12:55:38.180Z,1.70
2019-05-16T12:58:12.769Z,1.80
2019-05-16T13:00:36.862Z,2.10
2019-05-16T13:03:04.086Z,1.85
2019-05-16T13:05:31.435Z,1.50
2019-05-16T13:07:59.229Z,1.55
2019-05-16T13:10:27.148Z,1.12
2019-05-16T13:12:57.673Z,1.37
2019-05-16T13:15:24.029Z,1.12
2019-05-16T13:17:51.302Z,1.77
2019-05-16T13:20:18.622Z,1.75
2019-05-16T13:22:47.358Z,1.70
2019-05-16T13:25:18.056Z,1.70
2019-05-16T13:27:47.448Z,1.65
2019-05-16T13:30:14.299Z,1.10
2019-05-16T13:32:41.539Z,1.80
2019-05-16T13:35:09.261Z,1.37
2019-05-16T13:37:36.514Z,1.65
2019-05-16T13:40:07.616Z,1.60
2019-05-16T13:42:36.690Z,1.62
2019-05-16T13:45:03.769Z,1.45
2019-05-16T13:47:31.134Z,1.77
2019-05-16T13:49:58.683Z,1.22
2019-05-16T13:52:28.307Z,1.57
2019-05-16T13:54:56.393Z,1.60
2019-05-16T13:57:28.059Z,1.65
2019-05-16T13:59:53.135Z,1.20
2019-05-16T14:02:20.376Z,1.42
2019-05-16T14:04:47.627Z,1.32
2019-05-16T14:07:17.193Z,0.95
2019-05-16T14:09:44.017Z,1.17
2019-05-16T14:12:11.295Z,1.80
2019-05-16T14:14:42.303Z,1.57
2019-05-16T14:17:14.185Z,1.50
2019-05-16T14:19:37.535Z,1.17
2019-05-16T14:22:07.606Z,1.42
2019-05-16T14:24:37.028Z,1.80
2019-05-16T14:27:03.404Z,1.27
2019-05-16T14:29:30.636Z,1.47
2019-05-16T14:31:57.883Z,1.67
2019-05-16T14:34:27.657Z,1.57
2019-05-16T14:36:54.291Z,1.87
2019-05-16T14:39:21.568Z,1.72
2019-05-16T14:41:48.806Z,1.82
2019-05-16T14:44:18.368Z,1.55
2019-05-16T14:46:47.464Z,1.62
2019-05-16T14:49:17.055Z,1.60
2019-05-16T14:51:43.686Z,1.60
2019-05-16T14:54:12.783Z,1.25
2019-05-16T14:56:41.183Z,1.82
2019-05-16T14:59:08.495Z,1.75
2019-05-16T15:01:37.852Z,2.00
2019-05-16T15:04:08.059Z,2.30
2019-05-16T15:06:37.510Z,2.83
2019-05-16T15:09:07.496Z,2.05
2019-05-16T15:11:35.002Z,2.00
2019-05-16T15:14:02.347Z,2.20
2019-05-16T15:16:31.428Z,2.10
2019-05-16T15:18:58.702Z,2.52
2019-05-16T15:21:25.915Z,3.35
2019-05-16T15:23:53.224Z,3.58
2019-05-16T15:26:20.456Z,3.62
2019-05-16T15:28:51.047Z,4.12
2019-05-16T15:31:16.835Z,3.77
2019-05-16T15:33:44.095Z,3.33
2019-05-16T15:36:11.379Z,2.80
2019-05-16T15:38:38.587Z,3.60
2019-05-16T15:41:08.231Z,2.87
2019-05-16T15:43:36.862Z,2.50
2019-05-16T15:46:07.647Z,2.40
2019-05-16T15:48:36.834Z,3.05
2019-05-16T15:51:03.596Z,3.25
2019-05-16T15:53:30.928Z,2.58
2019-05-16T15:55:58.404Z,2.12
2019-05-16T15:58:29.540Z,2.40
2019-05-16T16:00:57.837Z,2.08
2019-05-16T16:03:27.158Z,2.60
2019-05-16T16:05:54.826Z,2.22
2019-05-16T16:08:23.394Z,1.87
2019-05-16T16:10:50.875Z,2.20
2019-05-16T16:13:21.919Z,1.67
2019-05-16T16:15:54.621Z,1.75
2019-05-16T16:18:22.187Z,1.77
2019-05-16T16:20:49.705Z,1.27
2019-05-16T16:23:17.704Z,0.95
2019-05-16T16:25:52.110Z,1.12
2019-05-16T16:28:21.813Z,1.20
2019-05-16T16:30:49.170Z,1.07
2019-05-16T16:33:22.548Z,1.40
2019-05-16T16:35:47.883Z,0.80
2019-05-16T16:38:19.204Z,1.20
2019-05-16T16:40:48.042Z,1.17
2019-05-16T16:43:15.532Z,1.10
2019-05-16T16:45:47.941Z,1.00
2019-05-16T16:48:17.074Z,1.13
2019-05-16T16:50:44.154Z,1.27
2019-05-16T16:53:11.583Z,1.43
2019-05-16T16:55:39.020Z,0.90
2019-05-16T16:58:09.568Z,1.50
2019-05-16T17:00:37.845Z,1.00
2019-05-16T17:03:09.913Z,1.60
2019-05-16T17:05:37.001Z,1.03
2019-05-16T17:08:03.969Z,1.37
2019-05-16T17:10:33.388Z,1.37
2019-05-16T17:13:00.727Z,1.10
2019-05-16T17:15:28.015Z,1.00
2019-05-16T17:17:57.409Z,1.13
2019-05-16T17:20:24.855Z,1.10
2019-05-16T17:22:52.264Z,1.47
2019-05-16T17:25:19.716Z,1.40
2019-05-16T17:27:47.250Z,1.07
2019-05-16T17:30:17.357Z,0.90
2019-05-16T17:32:44.712Z,0.80
2019-05-16T17:35:12.435Z,0.80
2019-05-16T17:37:40.657Z,0.87
2019-05-16T17:40:08.251Z,1.03
2019-05-16T17:42:37.307Z,0.80
2019-05-16T17:45:07.289Z,0.63
2019-05-16T17:47:37.030Z,1.30
2019-05-16T17:50:06.473Z,2.20
2019-05-16T17:52:33.812Z,2.00
2019-05-16T17:55:01.127Z,1.00
2019-05-16T17:57:28.480Z,1.00
2019-05-16T17:59:57.445Z,1.10
2019-05-16T18:02:26.730Z,1.23
2019-05-16T18:04:56.601Z,1.07
2019-05-16T18:07:23.375Z,1.10
2019-05-16T18:09:50.627Z,1.00
2019-05-16T18:12:17.844Z,1.00
2019-05-16T18:14:47.451Z,0.80
2019-05-16T18:17:14.280Z,0.77
2019-05-16T18:19:41.532Z,0.60
2019-05-16T18:22:08.775Z,0.30
2019-05-16T18:24:36.923Z,0.50
2019-05-16T18:27:06.692Z,0.40
2019-05-16T18:29:36.351Z,0.50
2019-05-16T18:32:03.425Z,0.60
2019-05-16T18:34:30.668Z,0.63
2019-05-16T18:36:58.703Z,0.50
2019-05-16T18:39:28.164Z,0.70
2019-05-16T18:41:56.547Z,0.90
2019-05-16T18:44:24.099Z,0.73
2019-05-16T18:47:04.024Z,0.83
2019-05-16T18:49:20.527Z,0.40
2019-05-16T18:51:51.171Z,0.80
2019-05-16T18:54:18.391Z,1.13
2019-05-16T18:56:47.287Z,0.87
2019-05-16T18:59:16.825Z,0.70
2019-05-16T19:02:03.735Z,0.50
2019-05-16T19:04:31.003Z,0.33
2019-05-16T19:06:59.635Z,0.80
2019-05-16T19:09:27.223Z,0.63
2019-05-16T19:11:56.585Z,0.53
2019-05-16T19:14:23.639Z,0.90
2019-05-16T19:16:53.152Z,0.50
2019-05-16T19:19:20.448Z,0.87
2019-05-16T19:21:49.046Z,0.70
2019-05-16T19:24:16.567Z,0.73
2019-05-16T19:26:43.909Z,1.00
2019-05-16T19:29:17.349Z,0.90
2019-05-16T19:31:46.629Z,0.70
2019-05-16T19:34:16.187Z,0.83
2019-05-16T19:36:43.186Z,0.70
2019-05-16T19:39:15.404Z,0.90
2019-05-16T19:41:46.476Z,1.17
2019-05-16T19:44:13.304Z,1.20
2019-05-16T19:46:40.559Z,1.10
2019-05-16T19:49:07.864Z,1.10
2019-05-16T19:51:37.555Z,1.47
2019-05-16T19:54:07.002Z,2.10
2019-05-16T19:56:33.979Z,1.50
2019-05-16T19:59:01.232Z,1.70
2019-05-16T20:01:28.455Z,1.77
2019-05-16T20:03:56.518Z,1.80
2019-05-16T20:06:23.936Z,1.87
2019-05-16T20:08:51.267Z,1.97
2019-05-16T20:11:19.000Z,1.70
2019-05-16T20:13:47.398Z,1.87
2019-05-16T20:16:18.085Z,1.70
2019-05-16T20:18:46.625Z,2.77
2019-05-16T20:21:18.113Z,1.90
2019-05-16T20:23:43.319Z,2.10
2019-05-16T20:26:10.811Z,2.37
2019-05-16T20:28:38.181Z,2.07
2019-05-16T20:31:08.076Z,2.00
2019-05-16T20:33:37.679Z,3.00
2019-05-16T20:36:06.381Z,1.80
2019-05-16T20:38:34.152Z,3.17
2019-05-16T20:41:01.392Z,3.73
2019-05-16T20:43:28.633Z,4.37
2019-05-16T20:45:56.863Z,5.10
2019-05-16T20:48:26.459Z,2.23
2019-05-16T20:50:56.458Z,2.50
2019-05-16T20:53:23.400Z,2.80
2019-05-16T20:55:51.241Z,1.70
2019-05-16T20:58:18.695Z,1.80
2019-05-16T21:00:49.780Z,2.73
2019-05-16T21:03:17.356Z,2.27
2019-05-16T21:05:47.657Z,2.60
2019-05-16T21:08:13.707Z,2.47
2019-05-16T21:10:40.951Z,2.10
2019-05-16T21:13:08.607Z,3.00
2019-05-16T21:15:37.305Z,3.00
2019-05-16T21:18:07.345Z,2.20
2019-05-16T21:20:34.078Z,2.93
2019-05-16T21:23:01.415Z,2.80
2019-05-16T21:25:28.806Z,2.93
2019-05-16T21:27:57.332Z,3.23
2019-05-16T21:30:27.219Z,2.57
2019-05-16T21:32:56.119Z,4.07
2019-05-16T21:35:23.148Z,3.13
2019-05-16T21:37:50.525Z,3.40
2019-05-16T21:40:17.837Z,3.20
2019-05-16T21:42:45.203Z,3.77
2019-05-16T21:45:12.971Z,3.23
2019-05-16T21:47:40.231Z,3.57
2019-05-16T21:50:08.380Z,3.47
2019-05-16T21:52:36.436Z,4.20
2019-05-16T21:55:07.130Z,3.30
2019-05-16T21:57:37.471Z,3.33
2019-05-16T22:00:10.635Z,4.57
2019-05-16T22:02:37.875Z,3.70
2019-05-16T22:05:06.276Z,4.40
2019-05-16T22:07:43.787Z,5.10
2019-05-16T22:10:11.263Z,4.50
2019-05-16T22:12:38.567Z,5.13
2019-05-16T22:15:06.775Z,4.83
2019-05-16T22:17:36.470Z,5.13
2019-05-16T22:20:03.979Z,5.80
2019-05-16T22:22:31.354Z,5.00
2019-05-16T22:24:58.592Z,5.53
2019-05-16T22:27:26.901Z,5.53
2019-05-16T22:29:56.588Z,5.23
2019-05-16T22:32:23.495Z,5.87
2019-05-16T22:34:50.746Z,4.83
2019-05-16T22:37:17.978Z,5.47
2019-05-16T22:39:45.327Z,5.03
2019-05-16T22:42:12.572Z,5.67
2019-05-16T22:44:39.887Z,4.63
2019-05-16T22:47:07.204Z,5.83
2019-05-16T22:49:36.824Z,5.07
2019-05-16T22:52:03.703Z,5.50
2019-05-16T22:54:30.935Z,5.53
2019-05-16T22:56:58.271Z,5.53
2019-05-16T22:59:27.170Z,5.30
2019-05-16T23:01:56.836Z,5.37
2019-05-16T23:04:23.790Z,5.63
2019-05-16T23:06:51.107Z,6.10
2019-05-16T23:09:18.348Z,6.20
2019-05-16T23:11:45.582Z,6.27
2019-05-16T23:14:12.828Z,5.90
2019-05-16T23:16:40.072Z,6.57
2019-05-16T23:19:07.311Z,7.00
2019-05-16T23:21:36.609Z,6.50
2019-05-16T23:24:03.704Z,6.47
2019-05-16T23:26:30.949Z,6.80
2019-05-16T23:28:58.197Z,6.83
2019-05-16T23:31:27.138Z,6.17
2019-05-16T23:33:56.469Z,6.67
2019-05-16T23:36:23.695Z,6.67
2019-05-16T23:38:50.924Z,7.73
2019-05-16T23:41:18.160Z,14.33
2019-05-16T23:43:47.230Z,10.73
2019-05-16T23:46:16.458Z,7.87
2019-05-16T23:48:43.673Z,6.80
2019-05-16T23:51:10.924Z,6.53
2019-05-16T23:53:38.162Z,7.20
2019-05-16T23:56:07.516Z,6.33
2019-05-16T23:58:36.767Z,7.07
